PWSweather.com
Personal Weather Stations
Station Observations
SONYA
Sergiev PosadRU

Sergiev PosadRU

Lat: 56.28148651, Lon: 38.05462646

Elevation: 741

Station Type: Fine offset WH1091

High Low Average
Temperature 29.5°F-1.4°C 25.3°F-3.7°C 27.7°F-2.4°C
Dew Point 26.7°F-2.9°C 22.0°F-5.6°C 24.7°F-4.1°C
Winds 3.8 mph 6.1 kmh Calm Calm Calm SSECalm SSE
Wind Gusts 6.9 mph11.1 kmh -- 1.0 mph1.6 kmh
Humidity 87% 80% 84%
Pressure 29.36 in994.2 mb 29.30 in992.2 mb -
Precipitation 0.00 in0.0 mm - -
Hour Temp Dew Point Humidity Winds Wind Gusts Pressure Precip Precip Rate Daily Precip Total
12:02 AM 25.9°F-3.4°C 22.6°F-5.2°C 82% 2.2 mph NE3.5 kmh NE 4.5 mph7.2 kmh 29.35 in993.9 mb 0.00 in0.0 mm 0.00 in0.0 mm 0.00 in0.0 mm
12:07 AM 25.9°F-3.4°C 22.6°F-5.2°C 82% 0.7 mph NE1.1 kmh NE 2.2 mph3.5 kmh 29.36 in994.2 mb 0.00 in0.0 mm 0.00 in0.0 mm 0.00 in0.0 mm
12:12 AM 25.9°F-3.4°C 22.6°F-5.2°C 82% 3.1 mph NE5.0 kmh NE 5.4 mph8.7 kmh 29.36 in994.2 mb 0.00 in0.0 mm 0.00 in0.0 mm 0.00 in0.0 mm
12:13 AM 25.9°F-3.4°C 22.6°F-5.2°C 82% 3.8 mph NE6.1 kmh NE 5.4 mph8.7 kmh 29.35 in993.9 mb 0.00 in0.0 mm 0.00 in0.0 mm 0.00 in0.0 mm
12:17 AM 25.9°F-3.4°C 22.6°F-5.2°C 82% 3.8 mph NE6.1 kmh NE 6.9 mph11.1 kmh 29.35 in993.9 mb 0.00 in0.0 mm 0.00 in0.0 mm 0.00 in0.0 mm
12:18 AM 25.9°F-3.4°C 22.6°F-5.2°C 82% 3.1 mph E5.0 kmh E 3.8 mph6.1 kmh 29.35 in993.9 mb 0.00 in0.0 mm 0.00 in0.0 mm 0.00 in0.0 mm
12:22 AM 25.9°F-3.4°C 22.6°F-5.2°C 82% 3.1 mph SE5.0 kmh SE 5.4 mph8.7 kmh 29.35 in993.9 mb 0.00 in0.0 mm 0.00 in0.0 mm 0.00 in0.0 mm
12:27 AM 25.9°F-3.4°C 22.6°F-5.2°C 82% 2.2 mph SE3.5 kmh SE 5.4 mph8.7 kmh 29.35 in993.9 mb 0.00 in0.0 mm 0.00 in0.0 mm 0.00 in0.0 mm
12:32 AM 25.9°F-3.4°C 22.6°F-5.2°C 82% 2.2 mph E3.5 kmh E 3.8 mph6.1 kmh 29.36 in994.2 mb 0.00 in0.0 mm 0.00 in0.0 mm 0.00 in0.0 mm
12:33 AM 25.9°F-3.4°C 22.6°F-5.2°C 82% 1.6 mph E2.6 kmh E 3.1 mph5.0 kmh 29.35 in993.9 mb 0.00 in0.0 mm 0.00 in0.0 mm 0.00 in0.0 mm
12:37 AM 25.9°F-3.4°C 22.6°F-5.2°C 82% 2.2 mph NE3.5 kmh NE 6.0 mph9.7 kmh 29.35 in993.9 mb 0.00 in0.0 mm 0.00 in0.0 mm 0.00 in0.0 mm
12:38 AM 25.9°F-3.4°C 22.6°F-5.2°C 82% 3.1 mph E5.0 kmh E 5.4 mph8.7 kmh 29.35 in993.9 mb 0.00 in0.0 mm 0.00 in0.0 mm 0.00 in0.0 mm
12:42 AM 25.9°F-3.4°C 22.6°F-5.2°C 82% 3.1 mph ENE5.0 kmh ENE 6.0 mph9.7 kmh 29.35 in993.9 mb 0.00 in0.0 mm 0.00 in0.0 mm 0.00 in0.0 mm
12:47 AM 25.7°F-3.5°C 22.4°F-5.3°C 82% 3.8 mph NE6.1 kmh NE 6.9 mph11.1 kmh 29.36 in994.2 mb 0.00 in0.0 mm 0.00 in0.0 mm 0.00 in0.0 mm
12:52 AM 25.7°F-3.5°C 22.4°F-5.3°C 82% 2.2 mph E3.5 kmh E 3.8 mph6.1 kmh 29.35 in993.9 mb 0.00 in0.0 mm 0.00 in0.0 mm 0.00 in0.0 mm
12:53 AM 25.7°F-3.5°C 22.4°F-5.3°C 82% 1.6 mph SE2.6 kmh SE 4.5 mph7.2 kmh 29.35 in993.9 mb 0.00 in0.0 mm 0.00 in0.0 mm 0.00 in0.0 mm
12:57 AM 25.7°F-3.5°C 22.4°F-5.3°C 82% 0.7 mph E1.1 kmh E 3.1 mph5.0 kmh 29.35 in993.9 mb 0.00 in0.0 mm 0.00 in0.0 mm 0.00 in0.0 mm
12:58 AM 25.7°F-3.5°C 22.4°F-5.3°C 82% 1.6 mph NE2.6 kmh NE 2.2 mph3.5 kmh 29.35 in993.9 mb 0.00 in0.0 mm 0.00 in0.0 mm 0.00 in0.0 mm
01:02 AM 25.7°F-3.5°C 22.4°F-5.3°C 82% 3.1 mph E5.0 kmh E 5.4 mph8.7 kmh 29.35 in993.9 mb 0.00 in0.0 mm 0.00 in0.0 mm 0.00 in0.0 mm
01:07 AM 25.7°F-3.5°C 22.4°F-5.3°C 82% 2.2 mph NE3.5 kmh NE 3.1 mph5.0 kmh 29.35 in993.9 mb 0.00 in0.0 mm 0.00 in0.0 mm 0.00 in0.0 mm
01:12 AM 25.7°F-3.5°C 22.4°F-5.3°C 82% 1.6 mph SE2.6 kmh SE 3.1 mph5.0 kmh 29.35 in993.9 mb 0.00 in0.0 mm 0.00 in0.0 mm 0.00 in0.0 mm
01:13 AM 25.7°F-3.5°C 22.4°F-5.3°C 82% 3.1 mph NE5.0 kmh NE 5.4 mph8.7 kmh 29.35 in993.9 mb 0.00 in0.0 mm 0.00 in0.0 mm 0.00 in0.0 mm
01:17 AM 25.5°F-3.6°C 22.2°F-5.4°C 82% 3.1 mph NE5.0 kmh NE 4.5 mph7.2 kmh 29.35 in993.9 mb 0.00 in0.0 mm 0.00 in0.0 mm 0.00 in0.0 mm
01:18 AM 25.7°F-3.5°C 22.4°F-5.3°C 82% 3.1 mph SE5.0 kmh SE 4.5 mph7.2 kmh 29.35 in993.9 mb 0.00 in0.0 mm 0.00 in0.0 mm 0.00 in0.0 mm
01:22 AM 25.5°F-3.6°C 22.2°F-5.4°C 82% 2.2 mph NE3.5 kmh NE 4.5 mph7.2 kmh 29.34 in993.6 mb 0.00 in0.0 mm 0.00 in0.0 mm 0.00 in0.0 mm
01:27 AM 25.5°F-3.6°C 22.2°F-5.4°C 82% 3.8 mph NE6.1 kmh NE 5.4 mph8.7 kmh 29.34 in993.6 mb 0.00 in0.0 mm 0.00 in0.0 mm 0.00 in0.0 mm
01:32 AM 25.5°F-3.6°C 22.2°F-5.4°C 82% 2.2 mph E3.5 kmh E 3.1 mph5.0 kmh 29.34 in993.6 mb 0.00 in0.0 mm 0.00 in0.0 mm 0.00 in0.0 mm
01:33 AM 25.5°F-3.6°C 22.2°F-5.4°C 82% 3.1 mph E5.0 kmh E 4.5 mph7.2 kmh 29.34 in993.6 mb 0.00 in0.0 mm 0.00 in0.0 mm 0.00 in0.0 mm
01:37 AM 25.5°F-3.6°C 22.2°F-5.4°C 82% 2.2 mph ENE3.5 kmh ENE 4.5 mph7.2 kmh 29.34 in993.6 mb 0.00 in0.0 mm 0.00 in0.0 mm 0.00 in0.0 mm
01:38 AM 25.5°F-3.6°C 22.2°F-5.4°C 82% 2.2 mph NE3.5 kmh NE 3.8 mph6.1 kmh 29.34 in993.6 mb 0.00 in0.0 mm 0.00 in0.0 mm 0.00 in0.0 mm
01:42 AM 25.5°F-3.6°C 22.2°F-5.4°C 82% 1.6 mph NE2.6 kmh NE 3.1 mph5.0 kmh 29.34 in993.6 mb 0.00 in0.0 mm 0.00 in0.0 mm 0.00 in0.0 mm
01:47 AM 25.3°F-3.7°C 22.0°F-5.6°C 82% 1.6 mph NE2.6 kmh NE 3.1 mph5.0 kmh 29.34 in993.6 mb 0.00 in0.0 mm 0.00 in0.0 mm 0.00 in0.0 mm
01:52 AM 25.3°F-3.7°C 22.0°F-5.6°C 82% 2.2 mph E3.5 kmh E 4.5 mph7.2 kmh 29.34 in993.6 mb 0.00 in0.0 mm 0.00 in0.0 mm 0.00 in0.0 mm
01:53 AM 25.3°F-3.7°C 22.0°F-5.6°C 82% 1.6 mph 2.6 kmh 3.8 mph6.1 kmh 29.34 in993.6 mb 0.00 in0.0 mm 0.00 in0.0 mm 0.00 in0.0 mm
01:57 AM 25.3°F-3.7°C 22.0°F-5.6°C 82% 1.6 mph E2.6 kmh E 4.5 mph7.2 kmh 29.34 in993.6 mb 0.00 in0.0 mm 0.00 in0.0 mm 0.00 in0.0 mm
01:58 AM 25.3°F-3.7°C 22.0°F-5.6°C 82% 3.1 mph 5.0 kmh 4.5 mph7.2 kmh 29.34 in993.6 mb 0.00 in0.0 mm 0.00 in0.0 mm 0.00 in0.0 mm
02:02 AM 25.3°F-3.7°C 22.0°F-5.6°C 82% 2.2 mph 3.5 kmh 5.4 mph8.7 kmh 29.34 in993.6 mb 0.00 in0.0 mm 0.00 in0.0 mm 0.00 in0.0 mm
02:07 AM 25.3°F-3.7°C 22.0°F-5.6°C 82% 2.2 mph E3.5 kmh E 3.1 mph5.0 kmh 29.34 in993.6 mb 0.00 in0.0 mm 0.00 in0.0 mm 0.00 in0.0 mm
02:12 AM 25.3°F-3.7°C 22.0°F-5.6°C 82% 0.7 mph NE1.1 kmh NE 2.2 mph3.5 kmh 29.35 in993.9 mb 0.00 in0.0 mm 0.00 in0.0 mm 0.00 in0.0 mm
02:13 AM 25.3°F-3.7°C 22.0°F-5.6°C 82% 0.7 mph 1.1 kmh 2.2 mph3.5 kmh 29.34 in993.6 mb 0.00 in0.0 mm 0.00 in0.0 mm 0.00 in0.0 mm
02:17 AM 25.3°F-3.7°C 22.0°F-5.6°C 82% 0.7 mph NE1.1 kmh NE 3.1 mph5.0 kmh 29.34 in993.6 mb 0.00 in0.0 mm 0.00 in0.0 mm 0.00 in0.0 mm
02:18 AM 25.3°F-3.7°C 22.0°F-5.6°C 82% 1.6 mph 2.6 kmh 3.1 mph5.0 kmh 29.35 in993.9 mb 0.00 in0.0 mm 0.00 in0.0 mm 0.00 in0.0 mm
02:22 AM 25.3°F-3.7°C 22.0°F-5.6°C 82% 1.6 mph NE2.6 kmh NE 3.1 mph5.0 kmh 29.34 in993.6 mb 0.00 in0.0 mm 0.00 in0.0 mm 0.00 in0.0 mm
02:27 AM 25.3°F-3.7°C 22.0°F-5.6°C 82% 2.2 mph NE3.5 kmh NE 5.4 mph8.7 kmh 29.34 in993.6 mb 0.00 in0.0 mm 0.00 in0.0 mm 0.00 in0.0 mm
02:32 AM 25.3°F-3.7°C 22.0°F-5.6°C 82% 2.2 mph SW3.5 kmh SW 3.8 mph6.1 kmh 29.33 in993.2 mb 0.00 in0.0 mm 0.00 in0.0 mm 0.00 in0.0 mm
04:42 AM 25.3°F-3.7°C 22.0°F-5.6°C 82% Calm Calm 0.7 mph1.1 kmh 29.31 in992.6 mb 0.00 in0.0 mm 0.00 in0.0 mm 0.00 in0.0 mm
04:47 AM 25.3°F-3.7°C 22.0°F-5.6°C 82% Calm Calm 0.7 mph1.1 kmh 29.32 in992.9 mb 0.00 in0.0 mm 0.00 in0.0 mm 0.00 in0.0 mm
04:52 AM 25.3°F-3.7°C 22.0°F-5.6°C 82% Calm Calm 0.7 mph1.1 kmh 29.31 in992.6 mb 0.00 in0.0 mm 0.00 in0.0 mm 0.00 in0.0 mm
04:57 AM 25.5°F-3.6°C 22.2°F-5.4°C 82% Calm Calm 0.7 mph1.1 kmh 29.32 in992.9 mb 0.00 in0.0 mm 0.00 in0.0 mm 0.00 in0.0 mm
05:02 AM 25.5°F-3.6°C 22.2°F-5.4°C 82% 0.7 mph SE1.1 kmh SE 2.2 mph3.5 kmh 29.31 in992.6 mb 0.00 in0.0 mm 0.00 in0.0 mm 0.00 in0.0 mm
06:22 AM 25.7°F-3.5°C 22.6°F-5.2°C 83% 1.6 mph SE2.6 kmh SE 3.1 mph5.0 kmh 29.31 in992.6 mb 0.00 in0.0 mm 0.00 in0.0 mm 0.00 in0.0 mm
06:27 AM 25.7°F-3.5°C 22.6°F-5.2°C 83% Calm Calm 0.7 mph1.1 kmh 29.31 in992.6 mb 0.00 in0.0 mm 0.00 in0.0 mm 0.00 in0.0 mm
06:32 AM 25.9°F-3.4°C 22.8°F-5.1°C 83% Calm Calm 1.6 mph2.6 kmh 29.31 in992.6 mb 0.00 in0.0 mm 0.00 in0.0 mm 0.00 in0.0 mm
06:33 AM 25.9°F-3.4°C 22.8°F-5.1°C 83% Calm Calm 0.7 mph1.1 kmh 29.31 in992.6 mb 0.00 in0.0 mm 0.00 in0.0 mm 0.00 in0.0 mm
06:38 AM 25.9°F-3.4°C 22.8°F-5.1°C 83% Calm Calm 0.7 mph1.1 kmh 29.31 in992.6 mb 0.00 in0.0 mm 0.00 in0.0 mm 0.00 in0.0 mm
06:42 AM 25.9°F-3.4°C 22.8°F-5.1°C 83% 0.7 mph NE1.1 kmh NE 1.6 mph2.6 kmh 29.31 in992.6 mb 0.00 in0.0 mm 0.00 in0.0 mm 0.00 in0.0 mm
06:47 AM 25.9°F-3.4°C 22.8°F-5.1°C 83% Calm Calm -- 29.31 in992.6 mb 0.00 in0.0 mm 0.00 in0.0 mm 0.00 in0.0 mm
06:52 AM 25.9°F-3.4°C 22.8°F-5.1°C 83% 0.7 mph 1.1 kmh 2.2 mph3.5 kmh 29.31 in992.6 mb 0.00 in0.0 mm 0.00 in0.0 mm 0.00 in0.0 mm
06:53 AM 25.9°F-3.4°C 22.8°F-5.1°C 83% Calm Calm 1.6 mph2.6 kmh 29.31 in992.6 mb 0.00 in0.0 mm 0.00 in0.0 mm 0.00 in0.0 mm
06:57 AM 25.9°F-3.4°C 22.8°F-5.1°C 83% Calm Calm -- 29.30 in992.2 mb 0.00 in0.0 mm 0.00 in0.0 mm 0.00 in0.0 mm
06:58 AM 25.9°F-3.4°C 22.8°F-5.1°C 83% Calm Calm 0.7 mph1.1 kmh 29.31 in992.6 mb 0.00 in0.0 mm 0.00 in0.0 mm 0.00 in0.0 mm
07:02 AM 25.9°F-3.4°C 22.8°F-5.1°C 83% Calm Calm -- 29.31 in992.6 mb 0.00 in0.0 mm 0.00 in0.0 mm 0.00 in0.0 mm
07:07 AM 25.9°F-3.4°C 22.8°F-5.1°C 83% 1.6 mph NE2.6 kmh NE 2.2 mph3.5 kmh 29.31 in992.6 mb 0.00 in0.0 mm 0.00 in0.0 mm 0.00 in0.0 mm
07:12 AM 25.9°F-3.4°C 22.8°F-5.1°C 83% Calm Calm 0.7 mph1.1 kmh 29.30 in992.2 mb 0.00 in0.0 mm 0.00 in0.0 mm 0.00 in0.0 mm
07:13 AM 25.9°F-3.4°C 22.8°F-5.1°C 83% Calm Calm 1.6 mph2.6 kmh 29.31 in992.6 mb 0.00 in0.0 mm 0.00 in0.0 mm 0.00 in0.0 mm
07:17 AM 25.9°F-3.4°C 22.8°F-5.1°C 83% Calm Calm -- 29.31 in992.6 mb 0.00 in0.0 mm 0.00 in0.0 mm 0.00 in0.0 mm
07:18 AM 25.9°F-3.4°C 22.8°F-5.1°C 83% 0.7 mph NE1.1 kmh NE 2.2 mph3.5 kmh 29.30 in992.2 mb 0.00 in0.0 mm 0.00 in0.0 mm 0.00 in0.0 mm
07:22 AM 25.9°F-3.4°C 22.8°F-5.1°C 83% Calm Calm 1.6 mph2.6 kmh 29.30 in992.2 mb 0.00 in0.0 mm 0.00 in0.0 mm 0.00 in0.0 mm
07:27 AM 25.9°F-3.4°C 22.8°F-5.1°C 83% Calm Calm 0.7 mph1.1 kmh 29.31 in992.6 mb 0.00 in0.0 mm 0.00 in0.0 mm 0.00 in0.0 mm
07:32 AM 25.9°F-3.4°C 22.8°F-5.1°C 83% Calm Calm -- 29.31 in992.6 mb 0.00 in0.0 mm 0.00 in0.0 mm 0.00 in0.0 mm
07:33 AM 25.9°F-3.4°C 22.8°F-5.1°C 83% Calm Calm -- 29.31 in992.6 mb 0.00 in0.0 mm 0.00 in0.0 mm 0.00 in0.0 mm
07:37 AM 25.9°F-3.4°C 22.8°F-5.1°C 83% Calm Calm -- 29.31 in992.6 mb 0.00 in0.0 mm 0.00 in0.0 mm 0.00 in0.0 mm
07:38 AM 25.9°F-3.4°C 22.8°F-5.1°C 83% Calm Calm -- 29.31 in992.6 mb 0.00 in0.0 mm 0.00 in0.0 mm 0.00 in0.0 mm
07:42 AM 25.9°F-3.4°C 22.8°F-5.1°C 83% Calm Calm 0.7 mph1.1 kmh 29.31 in992.6 mb 0.00 in0.0 mm 0.00 in0.0 mm 0.00 in0.0 mm
07:47 AM 25.9°F-3.4°C 22.8°F-5.1°C 83% Calm Calm -- 29.31 in992.6 mb 0.00 in0.0 mm 0.00 in0.0 mm 0.00 in0.0 mm
07:52 AM 25.9°F-3.4°C 22.8°F-5.1°C 83% Calm Calm -- 29.31 in992.6 mb 0.00 in0.0 mm 0.00 in0.0 mm 0.00 in0.0 mm
07:53 AM 25.9°F-3.4°C 22.8°F-5.1°C 83% Calm Calm -- 29.31 in992.6 mb 0.00 in0.0 mm 0.00 in0.0 mm 0.00 in0.0 mm
07:57 AM 25.9°F-3.4°C 22.8°F-5.1°C 83% Calm Calm 0.7 mph1.1 kmh 29.31 in992.6 mb 0.00 in0.0 mm 0.00 in0.0 mm 0.00 in0.0 mm
07:58 AM 25.9°F-3.4°C 22.8°F-5.1°C 83% Calm Calm -- 29.31 in992.6 mb 0.00 in0.0 mm 0.00 in0.0 mm 0.00 in0.0 mm
08:02 AM 25.9°F-3.4°C 22.8°F-5.1°C 83% Calm Calm -- 29.31 in992.6 mb 0.00 in0.0 mm 0.00 in0.0 mm 0.00 in0.0 mm
08:07 AM 26.1°F-3.3°C 22.9°F-5.1°C 83% Calm Calm 0.7 mph1.1 kmh 29.31 in992.6 mb 0.00 in0.0 mm 0.00 in0.0 mm 0.00 in0.0 mm
08:12 AM 26.1°F-3.3°C 22.9°F-5.1°C 83% Calm Calm 0.7 mph1.1 kmh 29.31 in992.6 mb 0.00 in0.0 mm 0.00 in0.0 mm 0.00 in0.0 mm
08:13 AM 26.1°F-3.3°C 22.9°F-5.1°C 83% Calm Calm -- 29.31 in992.6 mb 0.00 in0.0 mm 0.00 in0.0 mm 0.00 in0.0 mm
08:17 AM 26.1°F-3.3°C 22.9°F-5.1°C 83% Calm Calm 0.7 mph1.1 kmh 29.31 in992.6 mb 0.00 in0.0 mm 0.00 in0.0 mm 0.00 in0.0 mm
08:18 AM 26.1°F-3.3°C 22.9°F-5.1°C 83% 0.7 mph NE1.1 kmh NE 1.6 mph2.6 kmh 29.31 in992.6 mb 0.00 in0.0 mm 0.00 in0.0 mm 0.00 in0.0 mm
08:22 AM 26.1°F-3.3°C 22.9°F-5.1°C 83% Calm Calm 0.7 mph1.1 kmh 29.31 in992.6 mb 0.00 in0.0 mm 0.00 in0.0 mm 0.00 in0.0 mm
08:27 AM 26.1°F-3.3°C 22.9°F-5.1°C 83% Calm Calm 0.7 mph1.1 kmh 29.32 in992.9 mb 0.00 in0.0 mm 0.00 in0.0 mm 0.00 in0.0 mm
08:32 AM 26.1°F-3.3°C 22.9°F-5.1°C 83% Calm Calm -- 29.32 in992.9 mb 0.00 in0.0 mm 0.00 in0.0 mm 0.00 in0.0 mm
08:33 AM 26.1°F-3.3°C 22.9°F-5.1°C 83% Calm Calm -- 29.31 in992.6 mb 0.00 in0.0 mm 0.00 in0.0 mm 0.00 in0.0 mm
08:37 AM 26.1°F-3.3°C 22.9°F-5.1°C 83% Calm Calm 1.6 mph2.6 kmh 29.31 in992.6 mb 0.00 in0.0 mm 0.00 in0.0 mm 0.00 in0.0 mm
08:38 AM 26.1°F-3.3°C 22.9°F-5.1°C 83% Calm Calm 1.6 mph2.6 kmh 29.31 in992.6 mb 0.00 in0.0 mm 0.00 in0.0 mm 0.00 in0.0 mm
08:42 AM 26.1°F-3.3°C 22.9°F-5.1°C 83% Calm Calm -- 29.31 in992.6 mb 0.00 in0.0 mm 0.00 in0.0 mm 0.00 in0.0 mm
08:47 AM 26.1°F-3.3°C 22.9°F-5.1°C 83% Calm Calm -- 29.32 in992.9 mb 0.00 in0.0 mm 0.00 in0.0 mm 0.00 in0.0 mm
08:52 AM 26.1°F-3.3°C 22.9°F-5.1°C 83% Calm Calm -- 29.32 in992.9 mb 0.00 in0.0 mm 0.00 in0.0 mm 0.00 in0.0 mm
08:53 AM 26.2°F-3.2°C 23.1°F-4.9°C 83% Calm Calm 0.7 mph1.1 kmh 29.32 in992.9 mb 0.00 in0.0 mm 0.00 in0.0 mm 0.00 in0.0 mm
08:57 AM 26.2°F-3.2°C 23.1°F-4.9°C 83% Calm Calm -- 29.32 in992.9 mb 0.00 in0.0 mm 0.00 in0.0 mm 0.00 in0.0 mm
08:58 AM 26.2°F-3.2°C 23.1°F-4.9°C 83% Calm Calm -- 29.32 in992.9 mb 0.00 in0.0 mm 0.00 in0.0 mm 0.00 in0.0 mm
09:02 AM 26.2°F-3.2°C 23.1°F-4.9°C 83% Calm Calm -- 29.32 in992.9 mb 0.00 in0.0 mm 0.00 in0.0 mm 0.00 in0.0 mm
09:07 AM 26.2°F-3.2°C 23.1°F-4.9°C 83% Calm Calm -- 29.32 in992.9 mb 0.00 in0.0 mm 0.00 in0.0 mm 0.00 in0.0 mm
09:12 AM 26.2°F-3.2°C 23.1°F-4.9°C 83% Calm Calm -- 29.31 in992.6 mb 0.00 in0.0 mm 0.00 in0.0 mm 0.00 in0.0 mm
09:13 AM 26.2°F-3.2°C 23.1°F-4.9°C 83% Calm Calm -- 29.31 in992.6 mb 0.00 in0.0 mm 0.00 in0.0 mm 0.00 in0.0 mm
09:17 AM 26.2°F-3.2°C 23.1°F-4.9°C 83% Calm Calm -- 29.31 in992.6 mb 0.00 in0.0 mm 0.00 in0.0 mm 0.00 in0.0 mm
09:18 AM 26.2°F-3.2°C 23.1°F-4.9°C 83% Calm Calm -- 29.31 in992.6 mb 0.00 in0.0 mm 0.00 in0.0 mm 0.00 in0.0 mm
09:22 AM 26.4°F-3.1°C 23.3°F-4.8°C 83% Calm Calm -- 29.32 in992.9 mb 0.00 in0.0 mm 0.00 in0.0 mm 0.00 in0.0 mm
09:27 AM 26.6°F-3.0°C 23.3°F-4.8°C 82% Calm Calm -- 29.32 in992.9 mb 0.00 in0.0 mm 0.00 in0.0 mm 0.00 in0.0 mm
09:32 AM 26.6°F-3.0°C 23.3°F-4.8°C 82% Calm Calm -- 29.31 in992.6 mb 0.00 in0.0 mm 0.00 in0.0 mm 0.00 in0.0 mm
09:33 AM 26.8°F-2.9°C 23.4°F-4.8°C 82% Calm Calm -- 29.31 in992.6 mb 0.00 in0.0 mm 0.00 in0.0 mm 0.00 in0.0 mm
09:37 AM 26.8°F-2.9°C 23.4°F-4.8°C 82% Calm Calm -- 29.31 in992.6 mb 0.00 in0.0 mm 0.00 in0.0 mm 0.00 in0.0 mm
09:38 AM 26.8°F-2.9°C 23.4°F-4.8°C 82% Calm Calm -- 29.31 in992.6 mb 0.00 in0.0 mm 0.00 in0.0 mm 0.00 in0.0 mm
09:42 AM 27.0°F-2.8°C 23.6°F-4.7°C 82% Calm Calm -- 29.31 in992.6 mb 0.00 in0.0 mm 0.00 in0.0 mm 0.00 in0.0 mm
09:47 AM 27.1°F-2.7°C 23.8°F-4.6°C 82% Calm Calm -- 29.31 in992.6 mb 0.00 in0.0 mm 0.00 in0.0 mm 0.00 in0.0 mm
09:52 AM 27.3°F-2.6°C 24.0°F-4.4°C 82% Calm Calm -- 29.31 in992.6 mb 0.00 in0.0 mm 0.00 in0.0 mm 0.00 in0.0 mm
09:53 AM 27.3°F-2.6°C 24.0°F-4.4°C 82% Calm Calm -- 29.32 in992.9 mb 0.00 in0.0 mm 0.00 in0.0 mm 0.00 in0.0 mm
09:57 AM 27.1°F-2.7°C 23.8°F-4.6°C 82% Calm Calm -- 29.31 in992.6 mb 0.00 in0.0 mm 0.00 in0.0 mm 0.00 in0.0 mm
09:58 AM 27.1°F-2.7°C 23.8°F-4.6°C 82% Calm Calm -- 29.32 in992.9 mb 0.00 in0.0 mm 0.00 in0.0 mm 0.00 in0.0 mm
10:02 AM 27.1°F-2.7°C 23.8°F-4.6°C 82% Calm Calm -- 29.31 in992.6 mb 0.00 in0.0 mm 0.00 in0.0 mm 0.00 in0.0 mm
10:07 AM 27.3°F-2.6°C 24.0°F-4.4°C 82% Calm Calm -- 29.32 in992.9 mb 0.00 in0.0 mm 0.00 in0.0 mm 0.00 in0.0 mm
10:12 AM 27.3°F-2.6°C 24.0°F-4.4°C 82% Calm Calm -- 29.32 in992.9 mb 0.00 in0.0 mm 0.00 in0.0 mm 0.00 in0.0 mm
10:13 AM 27.5°F-2.5°C 24.1°F-4.4°C 82% Calm Calm -- 29.32 in992.9 mb 0.00 in0.0 mm 0.00 in0.0 mm 0.00 in0.0 mm
10:17 AM 27.5°F-2.5°C 24.1°F-4.4°C 82% Calm Calm 0.7 mph1.1 kmh 29.32 in992.9 mb 0.00 in0.0 mm 0.00 in0.0 mm 0.00 in0.0 mm
10:18 AM 27.5°F-2.5°C 24.1°F-4.4°C 82% Calm Calm -- 29.32 in992.9 mb 0.00 in0.0 mm 0.00 in0.0 mm 0.00 in0.0 mm
10:22 AM 27.5°F-2.5°C 24.1°F-4.4°C 82% Calm Calm -- 29.32 in992.9 mb 0.00 in0.0 mm 0.00 in0.0 mm 0.00 in0.0 mm
10:27 AM 27.7°F-2.4°C 24.3°F-4.3°C 82% Calm Calm 0.7 mph1.1 kmh 29.33 in993.2 mb 0.00 in0.0 mm 0.00 in0.0 mm 0.00 in0.0 mm
10:32 AM 27.7°F-2.4°C 24.3°F-4.3°C 82% Calm Calm 0.7 mph1.1 kmh 29.32 in992.9 mb 0.00 in0.0 mm 0.00 in0.0 mm 0.00 in0.0 mm
10:33 AM 27.7°F-2.4°C 24.3°F-4.3°C 82% Calm Calm -- 29.32 in992.9 mb 0.00 in0.0 mm 0.00 in0.0 mm 0.00 in0.0 mm
10:37 AM 27.7°F-2.4°C 24.3°F-4.3°C 82% 0.7 mph NE1.1 kmh NE 1.6 mph2.6 kmh 29.33 in993.2 mb 0.00 in0.0 mm 0.00 in0.0 mm 0.00 in0.0 mm
10:38 AM 27.7°F-2.4°C 24.3°F-4.3°C 82% Calm Calm -- 29.32 in992.9 mb 0.00 in0.0 mm 0.00 in0.0 mm 0.00 in0.0 mm
10:42 AM 27.5°F-2.5°C 24.1°F-4.4°C 82% Calm Calm 0.7 mph1.1 kmh 29.32 in992.9 mb 0.00 in0.0 mm 0.00 in0.0 mm 0.00 in0.0 mm
10:47 AM 27.5°F-2.5°C 24.1°F-4.4°C 82% Calm Calm -- 29.32 in992.9 mb 0.00 in0.0 mm 0.00 in0.0 mm 0.00 in0.0 mm
10:52 AM 27.7°F-2.4°C 24.3°F-4.3°C 82% Calm Calm -- 29.32 in992.9 mb 0.00 in0.0 mm 0.00 in0.0 mm 0.00 in0.0 mm
10:53 AM 27.7°F-2.4°C 24.3°F-4.3°C 82% Calm Calm -- 29.33 in993.2 mb 0.00 in0.0 mm 0.00 in0.0 mm 0.00 in0.0 mm
10:57 AM 27.7°F-2.4°C 24.3°F-4.3°C 82% Calm Calm 0.7 mph1.1 kmh 29.33 in993.2 mb 0.00 in0.0 mm 0.00 in0.0 mm 0.00 in0.0 mm
10:58 AM 27.7°F-2.4°C 24.3°F-4.3°C 82% Calm Calm -- 29.32 in992.9 mb 0.00 in0.0 mm 0.00 in0.0 mm 0.00 in0.0 mm
11:02 AM 27.9°F-2.3°C 24.5°F-4.2°C 82% Calm Calm -- 29.32 in992.9 mb 0.00 in0.0 mm 0.00 in0.0 mm 0.00 in0.0 mm
11:07 AM 27.9°F-2.3°C 24.5°F-4.2°C 82% Calm Calm -- 29.32 in992.9 mb 0.00 in0.0 mm 0.00 in0.0 mm 0.00 in0.0 mm
11:12 AM 27.9°F-2.3°C 24.5°F-4.2°C 82% Calm Calm -- 29.32 in992.9 mb 0.00 in0.0 mm 0.00 in0.0 mm 0.00 in0.0 mm
11:13 AM 27.9°F-2.3°C 24.5°F-4.2°C 82% Calm Calm -- 29.32 in992.9 mb 0.00 in0.0 mm 0.00 in0.0 mm 0.00 in0.0 mm
11:17 AM 28.0°F-2.2°C 24.7°F-4.1°C 82% Calm Calm -- 29.32 in992.9 mb 0.00 in0.0 mm 0.00 in0.0 mm 0.00 in0.0 mm
11:18 AM 28.0°F-2.2°C 24.7°F-4.1°C 82% Calm Calm -- 29.32 in992.9 mb 0.00 in0.0 mm 0.00 in0.0 mm 0.00 in0.0 mm
11:22 AM 28.2°F-2.1°C 24.8°F-4.0°C 82% Calm Calm 0.7 mph1.1 kmh 29.32 in992.9 mb 0.00 in0.0 mm 0.00 in0.0 mm 0.00 in0.0 mm
11:27 AM 28.2°F-2.1°C 24.8°F-4.0°C 82% Calm Calm 0.7 mph1.1 kmh 29.32 in992.9 mb 0.00 in0.0 mm 0.00 in0.0 mm 0.00 in0.0 mm
11:32 AM 28.2°F-2.1°C 24.8°F-4.0°C 82% Calm Calm -- 29.32 in992.9 mb 0.00 in0.0 mm 0.00 in0.0 mm 0.00 in0.0 mm
11:33 AM 28.2°F-2.1°C 24.8°F-4.0°C 82% Calm Calm -- 29.32 in992.9 mb 0.00 in0.0 mm 0.00 in0.0 mm 0.00 in0.0 mm
11:37 AM 28.2°F-2.1°C 24.8°F-4.0°C 82% Calm Calm 0.7 mph1.1 kmh 29.32 in992.9 mb 0.00 in0.0 mm 0.00 in0.0 mm 0.00 in0.0 mm
11:38 AM 28.2°F-2.1°C 24.8°F-4.0°C 82% Calm Calm -- 29.32 in992.9 mb 0.00 in0.0 mm 0.00 in0.0 mm 0.00 in0.0 mm
11:42 AM 28.4°F-2.0°C 25.6°F-3.6°C 85% Calm Calm -- 29.32 in992.9 mb 0.00 in0.0 mm 0.00 in0.0 mm 0.00 in0.0 mm
11:47 AM 28.4°F-2.0°C 25.6°F-3.6°C 85% 0.7 mph S1.1 kmh S 2.2 mph3.5 kmh 29.32 in992.9 mb 0.00 in0.0 mm 0.00 in0.0 mm 0.00 in0.0 mm
11:52 AM 28.4°F-2.0°C 25.6°F-3.6°C 85% Calm Calm -- 29.32 in992.9 mb 0.00 in0.0 mm 0.00 in0.0 mm 0.00 in0.0 mm
11:53 AM 28.4°F-2.0°C 25.6°F-3.6°C 85% Calm Calm 1.6 mph2.6 kmh 29.32 in992.9 mb 0.00 in0.0 mm 0.00 in0.0 mm 0.00 in0.0 mm
11:57 AM 28.4°F-2.0°C 25.6°F-3.6°C 85% 0.7 mph S1.1 kmh S 2.2 mph3.5 kmh 29.31 in992.6 mb 0.00 in0.0 mm 0.00 in0.0 mm 0.00 in0.0 mm
11:58 AM 28.4°F-2.0°C 25.6°F-3.6°C 85% Calm Calm -- 29.32 in992.9 mb 0.00 in0.0 mm 0.00 in0.0 mm 0.00 in0.0 mm
12:02 PM 28.6°F-1.9°C 25.8°F-3.4°C 85% Calm Calm 0.7 mph1.1 kmh 29.31 in992.6 mb 0.00 in0.0 mm 0.00 in0.0 mm 0.00 in0.0 mm
12:07 PM 28.4°F-2.0°C 25.4°F-3.7°C 84% Calm Calm -- 29.31 in992.6 mb 0.00 in0.0 mm 0.00 in0.0 mm 0.00 in0.0 mm
12:12 PM 28.4°F-2.0°C 25.4°F-3.7°C 84% Calm Calm -- 29.31 in992.6 mb 0.00 in0.0 mm 0.00 in0.0 mm 0.00 in0.0 mm
12:13 PM 28.4°F-2.0°C 25.4°F-3.7°C 84% Calm Calm 1.6 mph2.6 kmh 29.31 in992.6 mb 0.00 in0.0 mm 0.00 in0.0 mm 0.00 in0.0 mm
12:17 PM 28.4°F-2.0°C 25.4°F-3.7°C 84% Calm Calm 1.6 mph2.6 kmh 29.31 in992.6 mb 0.00 in0.0 mm 0.00 in0.0 mm 0.00 in0.0 mm
12:18 PM 28.4°F-2.0°C 25.4°F-3.7°C 84% 0.7 mph S1.1 kmh S 2.2 mph3.5 kmh 29.31 in992.6 mb 0.00 in0.0 mm 0.00 in0.0 mm 0.00 in0.0 mm
12:22 PM 28.4°F-2.0°C 25.4°F-3.7°C 84% Calm Calm -- 29.31 in992.6 mb 0.00 in0.0 mm 0.00 in0.0 mm 0.00 in0.0 mm
12:27 PM 28.4°F-2.0°C 25.4°F-3.7°C 84% Calm Calm -- 29.31 in992.6 mb 0.00 in0.0 mm 0.00 in0.0 mm 0.00 in0.0 mm
12:32 PM 28.4°F-2.0°C 25.4°F-3.7°C 84% Calm Calm -- 29.31 in992.6 mb 0.00 in0.0 mm 0.00 in0.0 mm 0.00 in0.0 mm
12:33 PM 28.4°F-2.0°C 25.4°F-3.7°C 84% Calm Calm -- 29.32 in992.9 mb 0.00 in0.0 mm 0.00 in0.0 mm 0.00 in0.0 mm
12:37 PM 28.6°F-1.9°C 25.6°F-3.6°C 84% Calm Calm -- 29.31 in992.6 mb 0.00 in0.0 mm 0.00 in0.0 mm 0.00 in0.0 mm
12:38 PM 28.6°F-1.9°C 25.6°F-3.6°C 84% Calm Calm -- 29.31 in992.6 mb 0.00 in0.0 mm 0.00 in0.0 mm 0.00 in0.0 mm
12:42 PM 28.8°F-1.8°C 25.8°F-3.4°C 84% Calm Calm -- 29.31 in992.6 mb 0.00 in0.0 mm 0.00 in0.0 mm 0.00 in0.0 mm
12:47 PM 28.9°F-1.7°C 26.0°F-3.3°C 84% Calm Calm -- 29.31 in992.6 mb 0.00 in0.0 mm 0.00 in0.0 mm 0.00 in0.0 mm
12:52 PM 29.3°F-1.5°C 26.3°F-3.2°C 84% Calm Calm -- 29.31 in992.6 mb 0.00 in0.0 mm 0.00 in0.0 mm 0.00 in0.0 mm
12:53 PM 29.3°F-1.5°C 26.3°F-3.2°C 84% Calm Calm -- 29.31 in992.6 mb 0.00 in0.0 mm 0.00 in0.0 mm 0.00 in0.0 mm
12:57 PM 29.3°F-1.5°C 26.1°F-3.3°C 83% Calm Calm -- 29.31 in992.6 mb 0.00 in0.0 mm 0.00 in0.0 mm 0.00 in0.0 mm
12:58 PM 29.3°F-1.5°C 26.1°F-3.3°C 83% Calm Calm -- 29.31 in992.6 mb 0.00 in0.0 mm 0.00 in0.0 mm 0.00 in0.0 mm
01:02 PM 29.5°F-1.4°C 26.3°F-3.2°C 83% Calm Calm -- 29.31 in992.6 mb 0.00 in0.0 mm 0.00 in0.0 mm 0.00 in0.0 mm
01:07 PM 29.3°F-1.5°C 26.1°F-3.3°C 83% Calm Calm -- 29.31 in992.6 mb 0.00 in0.0 mm 0.00 in0.0 mm 0.00 in0.0 mm
01:12 PM 29.1°F-1.6°C 25.9°F-3.4°C 83% Calm Calm -- 29.31 in992.6 mb 0.00 in0.0 mm 0.00 in0.0 mm 0.00 in0.0 mm
01:13 PM 29.3°F-1.5°C 26.1°F-3.3°C 83% Calm Calm -- 29.31 in992.6 mb 0.00 in0.0 mm 0.00 in0.0 mm 0.00 in0.0 mm
01:17 PM 29.1°F-1.6°C 25.9°F-3.4°C 83% Calm Calm 1.6 mph2.6 kmh 29.31 in992.6 mb 0.00 in0.0 mm 0.00 in0.0 mm 0.00 in0.0 mm
01:18 PM 29.1°F-1.6°C 25.9°F-3.4°C 83% Calm Calm -- 29.31 in992.6 mb 0.00 in0.0 mm 0.00 in0.0 mm 0.00 in0.0 mm
01:22 PM 29.1°F-1.6°C 25.9°F-3.4°C 83% Calm Calm -- 29.31 in992.6 mb 0.00 in0.0 mm 0.00 in0.0 mm 0.00 in0.0 mm
01:27 PM 29.3°F-1.5°C 26.1°F-3.3°C 83% Calm Calm -- 29.32 in992.9 mb 0.00 in0.0 mm 0.00 in0.0 mm 0.00 in0.0 mm
01:32 PM 29.5°F-1.4°C 26.3°F-3.2°C 83% Calm Calm -- 29.31 in992.6 mb 0.00 in0.0 mm 0.00 in0.0 mm 0.00 in0.0 mm
01:33 PM 29.5°F-1.4°C 26.3°F-3.2°C 83% Calm Calm -- 29.32 in992.9 mb 0.00 in0.0 mm 0.00 in0.0 mm 0.00 in0.0 mm
01:37 PM 29.5°F-1.4°C 26.1°F-3.3°C 82% Calm Calm -- 29.31 in992.6 mb 0.00 in0.0 mm 0.00 in0.0 mm 0.00 in0.0 mm
01:38 PM 29.5°F-1.4°C 26.3°F-3.2°C 83% Calm Calm 0.7 mph1.1 kmh 29.31 in992.6 mb 0.00 in0.0 mm 0.00 in0.0 mm 0.00 in0.0 mm
01:42 PM 29.5°F-1.4°C 26.1°F-3.3°C 82% Calm Calm -- 29.32 in992.9 mb 0.00 in0.0 mm 0.00 in0.0 mm 0.00 in0.0 mm
01:47 PM 29.5°F-1.4°C 26.1°F-3.3°C 82% Calm Calm -- 29.31 in992.6 mb 0.00 in0.0 mm 0.00 in0.0 mm 0.00 in0.0 mm
01:52 PM 29.5°F-1.4°C 26.1°F-3.3°C 82% Calm Calm -- 29.32 in992.9 mb 0.00 in0.0 mm 0.00 in0.0 mm 0.00 in0.0 mm
01:53 PM 29.3°F-1.5°C 25.9°F-3.4°C 82% Calm Calm -- 29.31 in992.6 mb 0.00 in0.0 mm 0.00 in0.0 mm 0.00 in0.0 mm
01:57 PM 29.3°F-1.5°C 25.9°F-3.4°C 82% Calm Calm -- 29.31 in992.6 mb 0.00 in0.0 mm 0.00 in0.0 mm 0.00 in0.0 mm
01:58 PM 29.3°F-1.5°C 25.9°F-3.4°C 82% Calm Calm -- 29.31 in992.6 mb 0.00 in0.0 mm 0.00 in0.0 mm 0.00 in0.0 mm
02:02 PM 29.3°F-1.5°C 25.9°F-3.4°C 82% Calm Calm 0.7 mph1.1 kmh 29.32 in992.9 mb 0.00 in0.0 mm 0.00 in0.0 mm 0.00 in0.0 mm
02:07 PM 29.1°F-1.6°C 25.7°F-3.5°C 82% Calm Calm -- 29.31 in992.6 mb 0.00 in0.0 mm 0.00 in0.0 mm 0.00 in0.0 mm
02:12 PM 29.1°F-1.6°C 25.9°F-3.4°C 83% Calm Calm -- 29.32 in992.9 mb 0.00 in0.0 mm 0.00 in0.0 mm 0.00 in0.0 mm
02:13 PM 29.1°F-1.6°C 25.9°F-3.4°C 83% Calm Calm -- 29.31 in992.6 mb 0.00 in0.0 mm 0.00 in0.0 mm 0.00 in0.0 mm
02:17 PM 29.1°F-1.6°C 25.9°F-3.4°C 83% Calm Calm 0.7 mph1.1 kmh 29.31 in992.6 mb 0.00 in0.0 mm 0.00 in0.0 mm 0.00 in0.0 mm
02:18 PM 28.9°F-1.7°C 25.8°F-3.4°C 83% Calm Calm -- 29.32 in992.9 mb 0.00 in0.0 mm 0.00 in0.0 mm 0.00 in0.0 mm
02:22 PM 29.3°F-1.5°C 26.1°F-3.3°C 83% Calm Calm -- 29.31 in992.6 mb 0.00 in0.0 mm 0.00 in0.0 mm 0.00 in0.0 mm
02:27 PM 29.5°F-1.4°C 26.3°F-3.2°C 83% Calm Calm -- 29.31 in992.6 mb 0.00 in0.0 mm 0.00 in0.0 mm 0.00 in0.0 mm
02:32 PM 29.3°F-1.5°C 26.1°F-3.3°C 83% Calm Calm 0.7 mph1.1 kmh 29.31 in992.6 mb 0.00 in0.0 mm 0.00 in0.0 mm 0.00 in0.0 mm
02:33 PM 29.3°F-1.5°C 26.1°F-3.3°C 83% Calm Calm -- 29.32 in992.9 mb 0.00 in0.0 mm 0.00 in0.0 mm 0.00 in0.0 mm
02:37 PM 29.5°F-1.4°C 26.3°F-3.2°C 83% Calm Calm -- 29.32 in992.9 mb 0.00 in0.0 mm 0.00 in0.0 mm 0.00 in0.0 mm
02:38 PM 29.3°F-1.5°C 26.1°F-3.3°C 83% Calm Calm -- 29.31 in992.6 mb 0.00 in0.0 mm 0.00 in0.0 mm 0.00 in0.0 mm
02:42 PM 29.3°F-1.5°C 26.1°F-3.3°C 83% Calm Calm -- 29.32 in992.9 mb 0.00 in0.0 mm 0.00 in0.0 mm 0.00 in0.0 mm
02:47 PM 29.1°F-1.6°C 25.9°F-3.4°C 83% Calm Calm -- 29.32 in992.9 mb 0.00 in0.0 mm 0.00 in0.0 mm 0.00 in0.0 mm
02:52 PM 29.1°F-1.6°C 25.9°F-3.4°C 83% Calm Calm -- 29.32 in992.9 mb 0.00 in0.0 mm 0.00 in0.0 mm 0.00 in0.0 mm
02:53 PM 29.1°F-1.6°C 25.9°F-3.4°C 83% Calm Calm -- 29.31 in992.6 mb 0.00 in0.0 mm 0.00 in0.0 mm 0.00 in0.0 mm
02:57 PM 29.1°F-1.6°C 25.9°F-3.4°C 83% Calm Calm -- 29.32 in992.9 mb 0.00 in0.0 mm 0.00 in0.0 mm 0.00 in0.0 mm
02:58 PM 29.1°F-1.6°C 25.9°F-3.4°C 83% Calm Calm -- 29.31 in992.6 mb 0.00 in0.0 mm 0.00 in0.0 mm 0.00 in0.0 mm
03:02 PM 29.1°F-1.6°C 25.9°F-3.4°C 83% Calm Calm -- 29.32 in992.9 mb 0.00 in0.0 mm 0.00 in0.0 mm 0.00 in0.0 mm
03:07 PM 29.1°F-1.6°C 25.9°F-3.4°C 83% Calm Calm -- 29.31 in992.6 mb 0.00 in0.0 mm 0.00 in0.0 mm 0.00 in0.0 mm
03:12 PM 28.9°F-1.7°C 25.8°F-3.4°C 83% Calm Calm -- 29.32 in992.9 mb 0.00 in0.0 mm 0.00 in0.0 mm 0.00 in0.0 mm
03:13 PM 29.1°F-1.6°C 25.9°F-3.4°C 83% Calm Calm -- 29.31 in992.6 mb 0.00 in0.0 mm 0.00 in0.0 mm 0.00 in0.0 mm
03:17 PM 28.9°F-1.7°C 25.8°F-3.4°C 83% Calm Calm -- 29.32 in992.9 mb 0.00 in0.0 mm 0.00 in0.0 mm 0.00 in0.0 mm
03:18 PM 29.1°F-1.6°C 25.9°F-3.4°C 83% Calm Calm -- 29.32 in992.9 mb 0.00 in0.0 mm 0.00 in0.0 mm 0.00 in0.0 mm
03:22 PM 28.8°F-1.8°C 25.6°F-3.6°C 83% Calm Calm -- 29.32 in992.9 mb 0.00 in0.0 mm 0.00 in0.0 mm 0.00 in0.0 mm
03:27 PM 28.8°F-1.8°C 25.6°F-3.6°C 83% Calm Calm -- 29.32 in992.9 mb 0.00 in0.0 mm 0.00 in0.0 mm 0.00 in0.0 mm
03:32 PM 28.8°F-1.8°C 25.6°F-3.6°C 83% Calm Calm -- 29.32 in992.9 mb 0.00 in0.0 mm 0.00 in0.0 mm 0.00 in0.0 mm
03:33 PM 28.8°F-1.8°C 25.6°F-3.6°C 83% Calm Calm -- 29.32 in992.9 mb 0.00 in0.0 mm 0.00 in0.0 mm 0.00 in0.0 mm
03:37 PM 28.6°F-1.9°C 25.6°F-3.6°C 84% Calm Calm -- 29.32 in992.9 mb 0.00 in0.0 mm 0.00 in0.0 mm 0.00 in0.0 mm
03:38 PM 28.6°F-1.9°C 25.4°F-3.7°C 83% Calm Calm -- 29.32 in992.9 mb 0.00 in0.0 mm 0.00 in0.0 mm 0.00 in0.0 mm
03:42 PM 28.6°F-1.9°C 25.6°F-3.6°C 84% Calm Calm -- 29.32 in992.9 mb 0.00 in0.0 mm 0.00 in0.0 mm 0.00 in0.0 mm
03:47 PM 28.6°F-1.9°C 25.6°F-3.6°C 84% Calm Calm -- 29.32 in992.9 mb 0.00 in0.0 mm 0.00 in0.0 mm 0.00 in0.0 mm
03:52 PM 28.6°F-1.9°C 25.6°F-3.6°C 84% Calm Calm -- 29.32 in992.9 mb 0.00 in0.0 mm 0.00 in0.0 mm 0.00 in0.0 mm
03:53 PM 28.6°F-1.9°C 25.6°F-3.6°C 84% Calm Calm -- 29.32 in992.9 mb 0.00 in0.0 mm 0.00 in0.0 mm 0.00 in0.0 mm
03:57 PM 28.4°F-2.0°C 25.4°F-3.7°C 84% Calm Calm -- 29.32 in992.9 mb 0.00 in0.0 mm 0.00 in0.0 mm 0.00 in0.0 mm
03:58 PM 28.6°F-1.9°C 25.6°F-3.6°C 84% Calm Calm -- 29.32 in992.9 mb 0.00 in0.0 mm 0.00 in0.0 mm 0.00 in0.0 mm
04:02 PM 28.4°F-2.0°C 25.4°F-3.7°C 84% Calm Calm -- 29.32 in992.9 mb 0.00 in0.0 mm 0.00 in0.0 mm 0.00 in0.0 mm
04:07 PM 28.4°F-2.0°C 25.4°F-3.7°C 84% Calm Calm -- 29.32 in992.9 mb 0.00 in0.0 mm 0.00 in0.0 mm 0.00 in0.0 mm
04:12 PM 28.4°F-2.0°C 25.4°F-3.7°C 84% Calm Calm -- 29.33 in993.2 mb 0.00 in0.0 mm 0.00 in0.0 mm 0.00 in0.0 mm
04:13 PM 28.4°F-2.0°C 25.4°F-3.7°C 84% Calm Calm -- 29.33 in993.2 mb 0.00 in0.0 mm 0.00 in0.0 mm 0.00 in0.0 mm
04:17 PM 28.4°F-2.0°C 25.4°F-3.7°C 84% Calm Calm -- 29.32 in992.9 mb 0.00 in0.0 mm 0.00 in0.0 mm 0.00 in0.0 mm
04:18 PM 28.4°F-2.0°C 25.4°F-3.7°C 84% Calm Calm -- 29.32 in992.9 mb 0.00 in0.0 mm 0.00 in0.0 mm 0.00 in0.0 mm
04:22 PM 28.4°F-2.0°C 25.4°F-3.7°C 84% Calm Calm -- 29.33 in993.2 mb 0.00 in0.0 mm 0.00 in0.0 mm 0.00 in0.0 mm
04:27 PM 28.4°F-2.0°C 25.4°F-3.7°C 84% Calm Calm -- 29.33 in993.2 mb 0.00 in0.0 mm 0.00 in0.0 mm 0.00 in0.0 mm
04:32 PM 28.4°F-2.0°C 25.4°F-3.7°C 84% Calm Calm -- 29.32 in992.9 mb 0.00 in0.0 mm 0.00 in0.0 mm 0.00 in0.0 mm
04:33 PM 28.4°F-2.0°C 25.4°F-3.7°C 84% Calm Calm -- 29.33 in993.2 mb 0.00 in0.0 mm 0.00 in0.0 mm 0.00 in0.0 mm
04:37 PM 28.2°F-2.1°C 24.4°F-4.2°C 80% Calm Calm -- 29.34 in993.6 mb 0.00 in0.0 mm 0.00 in0.0 mm 0.00 in0.0 mm
04:38 PM 28.2°F-2.1°C 24.4°F-4.2°C 80% Calm Calm -- 29.33 in993.2 mb 0.00 in0.0 mm 0.00 in0.0 mm 0.00 in0.0 mm
04:42 PM 28.2°F-2.1°C 24.4°F-4.2°C 80% Calm Calm -- 29.33 in993.2 mb 0.00 in0.0 mm 0.00 in0.0 mm 0.00 in0.0 mm
04:47 PM 28.4°F-2.0°C 25.6°F-3.6°C 85% Calm Calm -- 29.33 in993.2 mb 0.00 in0.0 mm 0.00 in0.0 mm 0.00 in0.0 mm
04:48 PM 28.4°F-2.0°C 25.6°F-3.6°C 85% Calm Calm -- 29.33 in993.2 mb 0.00 in0.0 mm 0.00 in0.0 mm 0.00 in0.0 mm
04:54 PM 28.4°F-2.0°C 25.6°F-3.6°C 85% Calm Calm -- 29.33 in993.2 mb 0.00 in0.0 mm 0.00 in0.0 mm 0.00 in0.0 mm
04:58 PM 28.2°F-2.1°C 24.6°F-4.1°C 81% Calm Calm -- 29.33 in993.2 mb 0.00 in0.0 mm 0.00 in0.0 mm 0.00 in0.0 mm
04:59 PM 28.4°F-2.0°C 25.6°F-3.6°C 85% Calm Calm -- 29.33 in993.2 mb 0.00 in0.0 mm 0.00 in0.0 mm 0.00 in0.0 mm
05:03 PM 28.2°F-2.1°C 24.6°F-4.1°C 81% Calm Calm 0.7 mph1.1 kmh 29.33 in993.2 mb 0.00 in0.0 mm 0.00 in0.0 mm 0.00 in0.0 mm
05:04 PM 28.2°F-2.1°C 24.6°F-4.1°C 81% Calm Calm 2.2 mph3.5 kmh 29.33 in993.2 mb 0.00 in0.0 mm 0.00 in0.0 mm 0.00 in0.0 mm
05:09 PM 28.2°F-2.1°C 24.6°F-4.1°C 81% Calm Calm -- 29.33 in993.2 mb 0.00 in0.0 mm 0.00 in0.0 mm 0.00 in0.0 mm
05:10 PM 28.2°F-2.1°C 24.6°F-4.1°C 81% Calm Calm 0.7 mph1.1 kmh 29.33 in993.2 mb 0.00 in0.0 mm 0.00 in0.0 mm 0.00 in0.0 mm
05:14 PM 28.2°F-2.1°C 24.6°F-4.1°C 81% Calm Calm -- 29.33 in993.2 mb 0.00 in0.0 mm 0.00 in0.0 mm 0.00 in0.0 mm
05:15 PM 28.2°F-2.1°C 24.6°F-4.1°C 81% Calm Calm 0.7 mph1.1 kmh 29.33 in993.2 mb 0.00 in0.0 mm 0.00 in0.0 mm 0.00 in0.0 mm
05:20 PM 28.2°F-2.1°C 24.6°F-4.1°C 81% Calm Calm -- 29.33 in993.2 mb 0.00 in0.0 mm 0.00 in0.0 mm 0.00 in0.0 mm
05:25 PM 28.0°F-2.2°C 24.5°F-4.2°C 81% Calm Calm -- 29.33 in993.2 mb 0.00 in0.0 mm 0.00 in0.0 mm 0.00 in0.0 mm
05:26 PM 28.2°F-2.1°C 24.6°F-4.1°C 81% Calm Calm -- 29.33 in993.2 mb 0.00 in0.0 mm 0.00 in0.0 mm 0.00 in0.0 mm
05:30 PM 28.0°F-2.2°C 24.5°F-4.2°C 81% Calm Calm -- 29.33 in993.2 mb 0.00 in0.0 mm 0.00 in0.0 mm 0.00 in0.0 mm
05:35 PM 28.0°F-2.2°C 24.5°F-4.2°C 81% Calm Calm -- 29.32 in992.9 mb 0.00 in0.0 mm 0.00 in0.0 mm 0.00 in0.0 mm
05:36 PM 28.0°F-2.2°C 24.5°F-4.2°C 81% Calm Calm 0.7 mph1.1 kmh 29.33 in993.2 mb 0.00 in0.0 mm 0.00 in0.0 mm 0.00 in0.0 mm
05:41 PM 28.0°F-2.2°C 24.5°F-4.2°C 81% Calm Calm -- 29.32 in992.9 mb 0.00 in0.0 mm 0.00 in0.0 mm 0.00 in0.0 mm
05:42 PM 28.0°F-2.2°C 24.5°F-4.2°C 81% Calm Calm -- 29.32 in992.9 mb 0.00 in0.0 mm 0.00 in0.0 mm 0.00 in0.0 mm
05:46 PM 28.0°F-2.2°C 24.5°F-4.2°C 81% Calm Calm 1.6 mph2.6 kmh 29.32 in992.9 mb 0.00 in0.0 mm 0.00 in0.0 mm 0.00 in0.0 mm
05:51 PM 28.0°F-2.2°C 24.5°F-4.2°C 81% Calm Calm -- 29.33 in993.2 mb 0.00 in0.0 mm 0.00 in0.0 mm 0.00 in0.0 mm
05:53 PM 28.0°F-2.2°C 24.5°F-4.2°C 81% Calm Calm -- 29.33 in993.2 mb 0.00 in0.0 mm 0.00 in0.0 mm 0.00 in0.0 mm
05:57 PM 28.2°F-2.1°C 24.6°F-4.1°C 81% Calm Calm -- 29.33 in993.2 mb 0.00 in0.0 mm 0.00 in0.0 mm 0.00 in0.0 mm
05:59 PM 28.0°F-2.2°C 24.5°F-4.2°C 81% Calm Calm 1.6 mph2.6 kmh 29.32 in992.9 mb 0.00 in0.0 mm 0.00 in0.0 mm 0.00 in0.0 mm
06:02 PM 28.2°F-2.1°C 24.6°F-4.1°C 81% Calm Calm -- 29.32 in992.9 mb 0.00 in0.0 mm 0.00 in0.0 mm 0.00 in0.0 mm
06:07 PM 28.2°F-2.1°C 24.6°F-4.1°C 81% Calm Calm 0.7 mph1.1 kmh 29.33 in993.2 mb 0.00 in0.0 mm 0.00 in0.0 mm 0.00 in0.0 mm
06:08 PM 28.2°F-2.1°C 24.6°F-4.1°C 81% Calm Calm -- 29.33 in993.2 mb 0.00 in0.0 mm 0.00 in0.0 mm 0.00 in0.0 mm
06:14 PM 28.4°F-2.0°C 25.6°F-3.6°C 85% Calm Calm 0.7 mph1.1 kmh 29.33 in993.2 mb 0.00 in0.0 mm 0.00 in0.0 mm 0.00 in0.0 mm
06:18 PM 28.4°F-2.0°C 25.6°F-3.6°C 85% Calm Calm 0.7 mph1.1 kmh 29.33 in993.2 mb 0.00 in0.0 mm 0.00 in0.0 mm 0.00 in0.0 mm
06:19 PM 28.4°F-2.0°C 25.6°F-3.6°C 85% Calm Calm 0.7 mph1.1 kmh 29.33 in993.2 mb 0.00 in0.0 mm 0.00 in0.0 mm 0.00 in0.0 mm
06:23 PM 28.4°F-2.0°C 25.6°F-3.6°C 85% Calm Calm -- 29.33 in993.2 mb 0.00 in0.0 mm 0.00 in0.0 mm 0.00 in0.0 mm
06:24 PM 28.4°F-2.0°C 25.6°F-3.6°C 85% Calm Calm -- 29.33 in993.2 mb 0.00 in0.0 mm 0.00 in0.0 mm 0.00 in0.0 mm
06:29 PM 28.4°F-2.0°C 25.6°F-3.6°C 85% Calm Calm -- 29.33 in993.2 mb 0.00 in0.0 mm 0.00 in0.0 mm 0.00 in0.0 mm
06:30 PM 28.4°F-2.0°C 25.6°F-3.6°C 85% Calm Calm -- 29.33 in993.2 mb 0.00 in0.0 mm 0.00 in0.0 mm 0.00 in0.0 mm
06:34 PM 28.4°F-2.0°C 25.6°F-3.6°C 85% Calm Calm 0.7 mph1.1 kmh 29.32 in992.9 mb 0.00 in0.0 mm 0.00 in0.0 mm 0.00 in0.0 mm
06:35 PM 28.4°F-2.0°C 25.8°F-3.4°C 86% Calm Calm -- 29.33 in993.2 mb 0.00 in0.0 mm 0.00 in0.0 mm 0.00 in0.0 mm
06:40 PM 28.6°F-1.9°C 26.0°F-3.3°C 86% Calm Calm -- 29.33 in993.2 mb 0.00 in0.0 mm 0.00 in0.0 mm 0.00 in0.0 mm
06:45 PM 28.6°F-1.9°C 26.0°F-3.3°C 86% Calm Calm -- 29.33 in993.2 mb 0.00 in0.0 mm 0.00 in0.0 mm 0.00 in0.0 mm
06:46 PM 28.6°F-1.9°C 26.0°F-3.3°C 86% Calm Calm -- 29.33 in993.2 mb 0.00 in0.0 mm 0.00 in0.0 mm 0.00 in0.0 mm
06:50 PM 28.6°F-1.9°C 26.0°F-3.3°C 86% Calm Calm -- 29.33 in993.2 mb 0.00 in0.0 mm 0.00 in0.0 mm 0.00 in0.0 mm
06:55 PM 28.6°F-1.9°C 26.0°F-3.3°C 86% Calm Calm -- 29.33 in993.2 mb 0.00 in0.0 mm 0.00 in0.0 mm 0.00 in0.0 mm
06:56 PM 28.6°F-1.9°C 26.0°F-3.3°C 86% Calm Calm -- 29.33 in993.2 mb 0.00 in0.0 mm 0.00 in0.0 mm 0.00 in0.0 mm
07:01 PM 28.8°F-1.8°C 26.2°F-3.2°C 86% Calm Calm -- 29.33 in993.2 mb 0.00 in0.0 mm 0.00 in0.0 mm 0.00 in0.0 mm
07:02 PM 28.8°F-1.8°C 26.2°F-3.2°C 86% Calm Calm -- 29.33 in993.2 mb 0.00 in0.0 mm 0.00 in0.0 mm 0.00 in0.0 mm
07:06 PM 28.8°F-1.8°C 26.2°F-3.2°C 86% Calm Calm -- 29.33 in993.2 mb 0.00 in0.0 mm 0.00 in0.0 mm 0.00 in0.0 mm
07:11 PM 28.8°F-1.8°C 26.2°F-3.2°C 86% Calm Calm -- 29.34 in993.6 mb 0.00 in0.0 mm 0.00 in0.0 mm 0.00 in0.0 mm
07:13 PM 28.8°F-1.8°C 26.2°F-3.2°C 86% Calm Calm -- 29.34 in993.6 mb 0.00 in0.0 mm 0.00 in0.0 mm 0.00 in0.0 mm
07:17 PM 28.8°F-1.8°C 26.2°F-3.2°C 86% Calm Calm -- 29.34 in993.6 mb 0.00 in0.0 mm 0.00 in0.0 mm 0.00 in0.0 mm
07:19 PM 28.8°F-1.8°C 26.2°F-3.2°C 86% Calm Calm -- 29.34 in993.6 mb 0.00 in0.0 mm 0.00 in0.0 mm 0.00 in0.0 mm
07:22 PM 28.8°F-1.8°C 26.2°F-3.2°C 86% Calm Calm -- 29.33 in993.2 mb 0.00 in0.0 mm 0.00 in0.0 mm 0.00 in0.0 mm
07:27 PM 28.8°F-1.8°C 26.2°F-3.2°C 86% Calm Calm -- 29.34 in993.6 mb 0.00 in0.0 mm 0.00 in0.0 mm 0.00 in0.0 mm
07:28 PM 28.8°F-1.8°C 26.2°F-3.2°C 86% Calm Calm -- 29.34 in993.6 mb 0.00 in0.0 mm 0.00 in0.0 mm 0.00 in0.0 mm
07:34 PM 28.8°F-1.8°C 26.2°F-3.2°C 86% Calm Calm -- 29.34 in993.6 mb 0.00 in0.0 mm 0.00 in0.0 mm 0.00 in0.0 mm
07:38 PM 28.8°F-1.8°C 26.2°F-3.2°C 86% Calm Calm -- 29.34 in993.6 mb 0.00 in0.0 mm 0.00 in0.0 mm 0.00 in0.0 mm
07:39 PM 28.8°F-1.8°C 26.2°F-3.2°C 86% Calm Calm -- 29.33 in993.2 mb 0.00 in0.0 mm 0.00 in0.0 mm 0.00 in0.0 mm
07:43 PM 28.8°F-1.8°C 26.2°F-3.2°C 86% Calm Calm -- 29.34 in993.6 mb 0.00 in0.0 mm 0.00 in0.0 mm 0.00 in0.0 mm
07:44 PM 28.8°F-1.8°C 26.2°F-3.2°C 86% Calm Calm -- 29.34 in993.6 mb 0.00 in0.0 mm 0.00 in0.0 mm 0.00 in0.0 mm
07:49 PM 28.8°F-1.8°C 26.2°F-3.2°C 86% Calm Calm -- 29.33 in993.2 mb 0.00 in0.0 mm 0.00 in0.0 mm 0.00 in0.0 mm
07:50 PM 28.6°F-1.9°C 26.0°F-3.3°C 86% Calm Calm -- 29.34 in993.6 mb 0.00 in0.0 mm 0.00 in0.0 mm 0.00 in0.0 mm
07:54 PM 28.8°F-1.8°C 26.2°F-3.2°C 86% Calm Calm -- 29.34 in993.6 mb 0.00 in0.0 mm 0.00 in0.0 mm 0.00 in0.0 mm
07:55 PM 28.8°F-1.8°C 26.2°F-3.2°C 86% Calm Calm -- 29.34 in993.6 mb 0.00 in0.0 mm 0.00 in0.0 mm 0.00 in0.0 mm
08:00 PM 28.8°F-1.8°C 26.2°F-3.2°C 86% Calm Calm -- 29.33 in993.2 mb 0.00 in0.0 mm 0.00 in0.0 mm 0.00 in0.0 mm
08:05 PM 28.8°F-1.8°C 26.2°F-3.2°C 86% Calm Calm 0.7 mph1.1 kmh 29.33 in993.2 mb 0.00 in0.0 mm 0.00 in0.0 mm 0.00 in0.0 mm
08:06 PM 28.6°F-1.9°C 26.0°F-3.3°C 86% Calm Calm -- 29.33 in993.2 mb 0.00 in0.0 mm 0.00 in0.0 mm 0.00 in0.0 mm
08:10 PM 28.8°F-1.8°C 26.2°F-3.2°C 86% Calm Calm -- 29.33 in993.2 mb 0.00 in0.0 mm 0.00 in0.0 mm 0.00 in0.0 mm
08:15 PM 28.8°F-1.8°C 26.2°F-3.2°C 86% Calm Calm -- 29.33 in993.2 mb 0.00 in0.0 mm 0.00 in0.0 mm 0.00 in0.0 mm
08:16 PM 28.8°F-1.8°C 26.2°F-3.2°C 86% Calm Calm -- 29.33 in993.2 mb 0.00 in0.0 mm 0.00 in0.0 mm 0.00 in0.0 mm
08:21 PM 28.6°F-1.9°C 26.0°F-3.3°C 86% Calm Calm -- 29.33 in993.2 mb 0.00 in0.0 mm 0.00 in0.0 mm 0.00 in0.0 mm
08:22 PM 28.6°F-1.9°C 26.0°F-3.3°C 86% Calm Calm -- 29.33 in993.2 mb 0.00 in0.0 mm 0.00 in0.0 mm 0.00 in0.0 mm
08:26 PM 28.6°F-1.9°C 26.0°F-3.3°C 86% Calm Calm -- 29.33 in993.2 mb 0.00 in0.0 mm 0.00 in0.0 mm 0.00 in0.0 mm
08:31 PM 28.6°F-1.9°C 26.0°F-3.3°C 86% Calm Calm -- 29.33 in993.2 mb 0.00 in0.0 mm 0.00 in0.0 mm 0.00 in0.0 mm
08:33 PM 28.6°F-1.9°C 26.0°F-3.3°C 86% Calm Calm -- 29.33 in993.2 mb 0.00 in0.0 mm 0.00 in0.0 mm 0.00 in0.0 mm
08:37 PM 28.8°F-1.8°C 26.2°F-3.2°C 86% Calm Calm -- 29.33 in993.2 mb 0.00 in0.0 mm 0.00 in0.0 mm 0.00 in0.0 mm
08:39 PM 28.8°F-1.8°C 26.2°F-3.2°C 86% Calm Calm -- 29.33 in993.2 mb 0.00 in0.0 mm 0.00 in0.0 mm 0.00 in0.0 mm
08:42 PM 28.8°F-1.8°C 26.2°F-3.2°C 86% Calm Calm -- 29.32 in992.9 mb 0.00 in0.0 mm 0.00 in0.0 mm 0.00 in0.0 mm
08:47 PM 28.8°F-1.8°C 26.2°F-3.2°C 86% Calm Calm -- 29.33 in993.2 mb 0.00 in0.0 mm 0.00 in0.0 mm 0.00 in0.0 mm
08:48 PM 28.8°F-1.8°C 26.2°F-3.2°C 86% Calm Calm 0.7 mph1.1 kmh 29.33 in993.2 mb 0.00 in0.0 mm 0.00 in0.0 mm 0.00 in0.0 mm
08:53 PM 28.8°F-1.8°C 26.4°F-3.1°C 87% Calm Calm 0.7 mph1.1 kmh 29.32 in992.9 mb 0.00 in0.0 mm 0.00 in0.0 mm 0.00 in0.0 mm
08:54 PM 28.8°F-1.8°C 26.4°F-3.1°C 87% Calm Calm -- 29.33 in993.2 mb 0.00 in0.0 mm 0.00 in0.0 mm 0.00 in0.0 mm
08:58 PM 28.9°F-1.7°C 26.5°F-3.1°C 87% Calm Calm -- 29.33 in993.2 mb 0.00 in0.0 mm 0.00 in0.0 mm 0.00 in0.0 mm
09:03 PM 28.9°F-1.7°C 26.5°F-3.1°C 87% Calm Calm -- 29.33 in993.2 mb 0.00 in0.0 mm 0.00 in0.0 mm 0.00 in0.0 mm
09:04 PM 28.9°F-1.7°C 26.5°F-3.1°C 87% Calm Calm 1.6 mph2.6 kmh 29.32 in992.9 mb 0.00 in0.0 mm 0.00 in0.0 mm 0.00 in0.0 mm
09:09 PM 28.9°F-1.7°C 26.5°F-3.1°C 87% Calm Calm -- 29.32 in992.9 mb 0.00 in0.0 mm 0.00 in0.0 mm 0.00 in0.0 mm
09:10 PM 28.9°F-1.7°C 26.5°F-3.1°C 87% Calm Calm -- 29.32 in992.9 mb 0.00 in0.0 mm 0.00 in0.0 mm 0.00 in0.0 mm
09:14 PM 29.1°F-1.6°C 26.7°F-2.9°C 87% Calm Calm 0.7 mph1.1 kmh 29.32 in992.9 mb 0.00 in0.0 mm 0.00 in0.0 mm 0.00 in0.0 mm
09:19 PM 29.1°F-1.6°C 26.7°F-2.9°C 87% Calm Calm -- 29.32 in992.9 mb 0.00 in0.0 mm 0.00 in0.0 mm 0.00 in0.0 mm
09:20 PM 29.1°F-1.6°C 26.7°F-2.9°C 87% Calm Calm -- 29.33 in993.2 mb 0.00 in0.0 mm 0.00 in0.0 mm 0.00 in0.0 mm
09:25 PM 29.1°F-1.6°C 26.7°F-2.9°C 87% Calm Calm -- 29.33 in993.2 mb 0.00 in0.0 mm 0.00 in0.0 mm 0.00 in0.0 mm
09:26 PM 29.1°F-1.6°C 26.7°F-2.9°C 87% Calm Calm 0.7 mph1.1 kmh 29.32 in992.9 mb 0.00 in0.0 mm 0.00 in0.0 mm 0.00 in0.0 mm
09:30 PM 29.1°F-1.6°C 26.7°F-2.9°C 87% Calm Calm -- 29.33 in993.2 mb 0.00 in0.0 mm 0.00 in0.0 mm 0.00 in0.0 mm
09:35 PM 29.1°F-1.6°C 26.7°F-2.9°C 87% Calm Calm -- 29.33 in993.2 mb 0.00 in0.0 mm 0.00 in0.0 mm 0.00 in0.0 mm
09:40 PM 29.1°F-1.6°C 26.7°F-2.9°C 87% Calm Calm 1.6 mph2.6 kmh 29.33 in993.2 mb 0.00 in0.0 mm 0.00 in0.0 mm 0.00 in0.0 mm
09:45 PM 29.1°F-1.6°C 26.7°F-2.9°C 87% Calm Calm -- 29.32 in992.9 mb 0.00 in0.0 mm 0.00 in0.0 mm 0.00 in0.0 mm
09:50 PM 29.1°F-1.6°C 26.7°F-2.9°C 87% Calm Calm 0.7 mph1.1 kmh 29.32 in992.9 mb 0.00 in0.0 mm 0.00 in0.0 mm 0.00 in0.0 mm
09:55 PM 29.1°F-1.6°C 26.7°F-2.9°C 87% Calm Calm -- 29.33 in993.2 mb 0.00 in0.0 mm 0.00 in0.0 mm 0.00 in0.0 mm
10:00 PM 29.1°F-1.6°C 26.7°F-2.9°C 87% Calm Calm -- 29.33 in993.2 mb 0.00 in0.0 mm 0.00 in0.0 mm 0.00 in0.0 mm
10:05 PM 29.1°F-1.6°C 26.7°F-2.9°C 87% Calm Calm -- 29.33 in993.2 mb 0.00 in0.0 mm 0.00 in0.0 mm 0.00 in0.0 mm
10:10 PM 29.1°F-1.6°C 26.7°F-2.9°C 87% Calm Calm 0.7 mph1.1 kmh 29.33 in993.2 mb 0.00 in0.0 mm 0.00 in0.0 mm 0.00 in0.0 mm
10:15 PM 29.1°F-1.6°C 26.7°F-2.9°C 87% Calm Calm -- 29.33 in993.2 mb 0.00 in0.0 mm 0.00 in0.0 mm 0.00 in0.0 mm
10:20 PM 28.9°F-1.7°C 26.5°F-3.1°C 87% Calm Calm -- 29.33 in993.2 mb 0.00 in0.0 mm 0.00 in0.0 mm 0.00 in0.0 mm
10:25 PM 28.9°F-1.7°C 26.5°F-3.1°C 87% Calm Calm -- 29.33 in993.2 mb 0.00 in0.0 mm 0.00 in0.0 mm 0.00 in0.0 mm
10:30 PM 28.9°F-1.7°C 26.5°F-3.1°C 87% 0.7 mph S1.1 kmh S 1.6 mph2.6 kmh 29.33 in993.2 mb 0.00 in0.0 mm 0.00 in0.0 mm 0.00 in0.0 mm
10:35 PM 28.9°F-1.7°C 26.5°F-3.1°C 87% Calm Calm -- 29.33 in993.2 mb 0.00 in0.0 mm 0.00 in0.0 mm 0.00 in0.0 mm
10:40 PM 28.9°F-1.7°C 26.5°F-3.1°C 87% Calm Calm -- 29.34 in993.6 mb 0.00 in0.0 mm 0.00 in0.0 mm 0.00 in0.0 mm
10:45 PM 28.9°F-1.7°C 26.5°F-3.1°C 87% Calm Calm -- 29.34 in993.6 mb 0.00 in0.0 mm 0.00 in0.0 mm 0.00 in0.0 mm
10:50 PM 28.9°F-1.7°C 26.5°F-3.1°C 87% Calm Calm -- 29.34 in993.6 mb 0.00 in0.0 mm 0.00 in0.0 mm 0.00 in0.0 mm
10:55 PM 28.9°F-1.7°C 26.5°F-3.1°C 87% Calm Calm -- 29.34 in993.6 mb 0.00 in0.0 mm 0.00 in0.0 mm 0.00 in0.0 mm
11:00 PM 28.9°F-1.7°C 26.5°F-3.1°C 87% Calm Calm -- 29.33 in993.2 mb 0.00 in0.0 mm 0.00 in0.0 mm 0.00 in0.0 mm
11:05 PM 28.9°F-1.7°C 26.5°F-3.1°C 87% Calm Calm -- 29.33 in993.2 mb 0.00 in0.0 mm 0.00 in0.0 mm 0.00 in0.0 mm
11:10 PM 28.9°F-1.7°C 26.5°F-3.1°C 87% Calm Calm 0.7 mph1.1 kmh 29.34 in993.6 mb 0.00 in0.0 mm 0.00 in0.0 mm 0.00 in0.0 mm
11:15 PM 28.9°F-1.7°C 26.5°F-3.1°C 87% Calm Calm -- 29.34 in993.6 mb 0.00 in0.0 mm 0.00 in0.0 mm 0.00 in0.0 mm
11:20 PM 28.9°F-1.7°C 26.5°F-3.1°C 87% Calm Calm 1.6 mph2.6 kmh 29.33 in993.2 mb 0.00 in0.0 mm 0.00 in0.0 mm 0.00 in0.0 mm
11:25 PM 28.8°F-1.8°C 26.4°F-3.1°C 87% Calm Calm -- 29.33 in993.2 mb 0.00 in0.0 mm 0.00 in0.0 mm 0.00 in0.0 mm
11:30 PM 28.8°F-1.8°C 26.4°F-3.1°C 87% Calm Calm -- 29.33 in993.2 mb 0.00 in0.0 mm 0.00 in0.0 mm 0.00 in0.0 mm
11:35 PM 28.8°F-1.8°C 26.4°F-3.1°C 87% Calm Calm -- 29.33 in993.2 mb 0.00 in0.0 mm 0.00 in0.0 mm 0.00 in0.0 mm
11:40 PM 28.8°F-1.8°C 26.2°F-3.2°C 86% Calm Calm -- 29.33 in993.2 mb 0.00 in0.0 mm 0.00 in0.0 mm 0.00 in0.0 mm
11:45 PM 28.8°F-1.8°C 26.2°F-3.2°C 86% Calm Calm -- 29.33 in993.2 mb 0.00 in0.0 mm 0.00 in0.0 mm 0.00 in0.0 mm
11:50 PM 28.6°F-1.9°C 26.0°F-3.3°C 86% Calm Calm 0.7 mph1.1 kmh 29.32 in992.9 mb 0.00 in0.0 mm 0.00 in0.0 mm 0.00 in0.0 mm
11:55 PM 28.6°F-1.9°C 26.0°F-3.3°C 86% Calm Calm -- 29.32 in992.9 mb 0.00 in0.0 mm 0.00 in0.0 mm 0.00 in0.0 mm